DLH102 UHWW-UHHH
Flight info
| Callsign | DLH102 |
|---|---|
| Flight time | 1h 0m |
| Altitude | 29000 |
| Route | DOLMA2F DOLMA B356 TD B355 ARDEL ARDEL6G |
| Aircraft | F28/M-SDFIRWY/H |
Departure
| Time | 2026-05-06 18:58 |
|---|---|
| Airport | Vladivostok International Airport (UHWW) |
Arrival
| Time | 2026-05-06 19:59 |
|---|---|
| Airport | Khabarovsk Novy Airport (UHHH) |
| Time | Latitude | Longitude | Altitude | Speed | Heading |
|---|---|---|---|---|---|
| 2026-05-06 17:22 | 43.40095 | 132.16884 | 49 ft | 0 kts | 333° |
| 2026-05-06 18:51 | 43.40115 | 132.16842 | 49 ft | 10 kts | 273° |
| 2026-05-06 18:51 | 43.40087 | 132.16751 | 48 ft | 9 kts | 242° |
| 2026-05-06 18:51 | 43.40058 | 132.16674 | 47 ft | 16 kts | 242° |
| 2026-05-06 18:52 | 43.39989 | 132.16502 | 48 ft | 20 kts | 240° |
| 2026-05-06 18:52 | 43.39929 | 132.16356 | 46 ft | 15 kts | 241° |
| 2026-05-06 18:52 | 43.39887 | 132.16249 | 47 ft | 11 kts | 241° |
| 2026-05-06 18:52 | 43.39863 | 132.16170 | 45 ft | 7 kts | 266° |
| 2026-05-06 18:53 | 43.39878 | 132.16117 | 47 ft | 14 kts | 299° |
| 2026-05-06 18:53 | 43.39850 | 132.15954 | 46 ft | 18 kts | 241° |
| 2026-05-06 18:53 | 43.39800 | 132.15828 | 46 ft | 13 kts | 241° |
| 2026-05-06 18:53 | 43.39765 | 132.15740 | 43 ft | 8 kts | 241° |
| 2026-05-06 18:54 | 43.39744 | 132.15688 | 46 ft | 4 kts | 241° |
| 2026-05-06 18:54 | 43.39729 | 132.15649 | 46 ft | 14 kts | 241° |
| 2026-05-06 18:54 | 43.39637 | 132.15423 | 42 ft | 31 kts | 241° |
| 2026-05-06 18:54 | 43.39542 | 132.15191 | 45 ft | 24 kts | 241° |
| 2026-05-06 18:55 | 43.39470 | 132.15011 | 44 ft | 19 kts | 239° |
| 2026-05-06 18:55 | 43.39415 | 132.14874 | 44 ft | 18 kts | 241° |
| 2026-05-06 18:55 | 43.39335 | 132.14675 | 43 ft | 29 kts | 241° |
| 2026-05-06 18:55 | 43.39240 | 132.14442 | 41 ft | 25 kts | 241° |
| 2026-05-06 18:56 | 43.39209 | 132.14278 | 41 ft | 6 kts | 315° |
| 2026-05-06 18:56 | 43.39256 | 132.14240 | 40 ft | 0 kts | 330° |
| 2026-05-06 18:57 | 43.39285 | 132.14217 | 42 ft | 19 kts | 330° |
| 2026-05-06 18:57 | 43.39366 | 132.14175 | 42 ft | 1 kts | 29° |
| 2026-05-06 18:58 | 43.39465 | 132.14399 | 43 ft | 68 kts | 61° |
| 2026-05-06 18:58 | 43.39841 | 132.15325 | 62 ft | 151 kts | 60° |
| 2026-05-06 18:58 | 43.40383 | 132.16661 | 1183 ft | 151 kts | 56° |
| 2026-05-06 18:58 | 43.40913 | 132.17835 | 2979 ft | 140 kts | 56° |
| 2026-05-06 18:59 | 43.41387 | 132.19022 | 4339 ft | 156 kts | 55° |
| 2026-05-06 18:59 | 43.41951 | 132.20429 | 5361 ft | 180 kts | 55° |
| 2026-05-06 18:59 | 43.42678 | 132.22178 | 5481 ft | 244 kts | 56° |
| 2026-05-06 18:59 | 43.43581 | 132.24359 | 5811 ft | 265 kts | 57° |
| 2026-05-06 19:00 | 43.44516 | 132.26673 | 6098 ft | 294 kts | 58° |
| 2026-05-06 19:00 | 43.45493 | 132.29114 | 7094 ft | 292 kts | 58° |
| 2026-05-06 19:00 | 43.46479 | 132.31595 | 7813 ft | 301 kts | 58° |
| 2026-05-06 19:00 | 43.47498 | 132.34167 | 8555 ft | 310 kts | 58° |
| 2026-05-06 19:01 | 43.48628 | 132.36734 | 9298 ft | 315 kts | 46° |
| 2026-05-06 19:01 | 43.50260 | 132.38725 | 10039 ft | 315 kts | 31° |
| 2026-05-06 19:01 | 43.52094 | 132.40414 | 10655 ft | 324 kts | 27° |
| 2026-05-06 19:01 | 43.54082 | 132.42052 | 10972 ft | 341 kts | 25° |
| 2026-05-06 19:02 | 43.56196 | 132.43716 | 11317 ft | 358 kts | 24° |
| 2026-05-06 19:02 | 43.58415 | 132.45420 | 11674 ft | 374 kts | 24° |
| 2026-05-06 19:02 | 43.60732 | 132.47195 | 12090 ft | 387 kts | 25° |
| 2026-05-06 19:02 | 43.63113 | 132.49037 | 12551 ft | 397 kts | 25° |
| 2026-05-06 19:03 | 43.65544 | 132.50952 | 13040 ft | 407 kts | 25° |
| 2026-05-06 19:03 | 43.68004 | 132.52915 | 13757 ft | 409 kts | 25° |
| 2026-05-06 19:03 | 43.70457 | 132.54892 | 14455 ft | 409 kts | 26° |
| 2026-05-06 19:03 | 43.72906 | 132.56876 | 15167 ft | 407 kts | 25° |
| 2026-05-06 19:04 | 43.75350 | 132.58835 | 15898 ft | 406 kts | 25° |
| 2026-05-06 19:04 | 43.77792 | 132.60791 | 16625 ft | 404 kts | 25° |
| 2026-05-06 19:04 | 43.80210 | 132.62750 | 17281 ft | 405 kts | 27° |
| 2026-05-06 19:04 | 43.82513 | 132.65063 | 17781 ft | 413 kts | 34° |
| 2026-05-06 19:05 | 43.84723 | 132.67662 | 18297 ft | 419 kts | 37° |
| 2026-05-06 19:05 | 43.86901 | 132.70370 | 18756 ft | 423 kts | 38° |
| 2026-05-06 19:05 | 43.89059 | 132.73108 | 19143 ft | 429 kts | 38° |
| 2026-05-06 19:05 | 43.91262 | 132.75927 | 19493 ft | 434 kts | 38° |
| 2026-05-06 19:06 | 43.93502 | 132.78769 | 19857 ft | 439 kts | 38° |
| 2026-05-06 19:06 | 43.95773 | 132.81630 | 20236 ft | 443 kts | 38° |
| 2026-05-06 19:06 | 43.98080 | 132.84499 | 20628 ft | 447 kts | 37° |
| 2026-05-06 19:06 | 44.00412 | 132.87372 | 21011 ft | 450 kts | 37° |
| 2026-05-06 19:07 | 44.02764 | 132.90268 | 21397 ft | 453 kts | 37° |
| 2026-05-06 19:07 | 44.05128 | 132.93181 | 21794 ft | 456 kts | 37° |
| 2026-05-06 19:07 | 44.07503 | 132.96114 | 22195 ft | 458 kts | 37° |
| 2026-05-06 19:07 | 44.09888 | 132.99072 | 22591 ft | 460 kts | 37° |
| 2026-05-06 19:08 | 44.12273 | 133.02042 | 22944 ft | 463 kts | 37° |
| 2026-05-06 19:08 | 44.14692 | 133.05059 | 23114 ft | 470 kts | 37° |
| 2026-05-06 19:08 | 44.17134 | 133.08107 | 23419 ft | 473 kts | 37° |
| 2026-05-06 19:08 | 44.19617 | 133.11123 | 23678 ft | 474 kts | 34° |
| 2026-05-06 19:09 | 44.22179 | 133.14029 | 23932 ft | 475 kts | 32° |
| 2026-05-06 19:09 | 44.24807 | 133.16833 | 24184 ft | 477 kts | 31° |
| 2026-05-06 19:09 | 44.27481 | 133.19590 | 24440 ft | 478 kts | 30° |
| 2026-05-06 19:09 | 44.30178 | 133.22309 | 24732 ft | 479 kts | 30° |
| 2026-05-06 19:10 | 44.32882 | 133.25053 | 25030 ft | 481 kts | 30° |
| 2026-05-06 19:10 | 44.35589 | 133.27814 | 25313 ft | 483 kts | 30° |
| 2026-05-06 19:10 | 44.38302 | 133.30590 | 25582 ft | 484 kts | 30° |
| 2026-05-06 19:10 | 44.41019 | 133.33375 | 25858 ft | 485 kts | 30° |
| 2026-05-06 19:11 | 44.43740 | 133.36174 | 26141 ft | 485 kts | 30° |
| 2026-05-06 19:11 | 44.46453 | 133.38990 | 26421 ft | 486 kts | 30° |
| 2026-05-06 19:11 | 44.49158 | 133.41835 | 26688 ft | 487 kts | 30° |
| 2026-05-06 19:11 | 44.51871 | 133.44671 | 26970 ft | 486 kts | 30° |
| 2026-05-06 19:12 | 44.54591 | 133.47494 | 27251 ft | 486 kts | 30° |
| 2026-05-06 19:12 | 44.57305 | 133.50310 | 27531 ft | 486 kts | 30° |
| 2026-05-06 19:12 | 44.60021 | 133.53129 | 27818 ft | 486 kts | 30° |
| 2026-05-06 19:12 | 44.62739 | 133.55955 | 28087 ft | 486 kts | 30° |
| 2026-05-06 19:13 | 44.65455 | 133.58785 | 28303 ft | 487 kts | 30° |
| 2026-05-06 19:13 | 44.68166 | 133.61653 | 28524 ft | 489 kts | 30° |
| 2026-05-06 19:13 | 44.70856 | 133.64500 | 28677 ft | 492 kts | 30° |
| 2026-05-06 19:13 | 44.73606 | 133.67384 | 28795 ft | 495 kts | 30° |
| 2026-05-06 19:14 | 44.76376 | 133.70275 | 28890 ft | 498 kts | 30° |
| 2026-05-06 19:14 | 44.81981 | 133.76210 | 28903 ft | 510 kts | 31° |
| 2026-05-06 19:15 | 44.87697 | 133.82308 | 28907 ft | 519 kts | 31° |
| 2026-05-06 19:15 | 44.93535 | 133.88384 | 28900 ft | 523 kts | 29° |
| 2026-05-06 19:16 | 44.99478 | 133.94305 | 28892 ft | 523 kts | 28° |
| 2026-05-06 19:16 | 45.05456 | 134.00201 | 28888 ft | 523 kts | 28° |
| 2026-05-06 19:17 | 45.11377 | 134.06150 | 28892 ft | 521 kts | 28° |
| 2026-05-06 19:17 | 45.17280 | 134.12092 | 28891 ft | 520 kts | 28° |
| 2026-05-06 19:18 | 45.23196 | 134.17986 | 28888 ft | 519 kts | 28° |
| 2026-05-06 19:18 | 45.29073 | 134.23936 | 28884 ft | 519 kts | 28° |
| 2026-05-06 19:19 | 45.34947 | 134.29891 | 28886 ft | 518 kts | 28° |
| 2026-05-06 19:19 | 45.40834 | 134.35800 | 28888 ft | 518 kts | 28° |
| 2026-05-06 19:20 | 45.46694 | 134.41770 | 28887 ft | 518 kts | 28° |
| 2026-05-06 19:20 | 45.52545 | 134.47756 | 28883 ft | 518 kts | 28° |
| 2026-05-06 19:21 | 45.58402 | 134.53749 | 28884 ft | 517 kts | 28° |
| 2026-05-06 19:21 | 45.64229 | 134.59661 | 28885 ft | 518 kts | 28° |
| 2026-05-06 19:22 | 45.70084 | 134.65669 | 28876 ft | 518 kts | 28° |
| 2026-05-06 19:22 | 45.75940 | 134.71705 | 28883 ft | 519 kts | 28° |
| 2026-05-06 19:23 | 45.81810 | 134.77763 | 28696 ft | 521 kts | 28° |
| 2026-05-06 19:23 | 45.84722 | 134.80792 | 28436 ft | 515 kts | 29° |
| 2026-05-06 19:23 | 45.87655 | 134.83734 | 27697 ft | 512 kts | 22° |
| 2026-05-06 19:23 | 45.90846 | 134.85842 | 26870 ft | 501 kts | 8° |
| 2026-05-06 19:24 | 45.94194 | 134.87048 | 26089 ft | 492 kts | 359° |
| 2026-05-06 19:24 | 45.97562 | 134.87727 | 25330 ft | 489 kts | 355° |
| 2026-05-06 19:24 | 46.00950 | 134.88171 | 24588 ft | 483 kts | 353° |
| 2026-05-06 19:24 | 46.04246 | 134.88535 | 23860 ft | 468 kts | 353° |
| 2026-05-06 19:25 | 46.07470 | 134.88884 | 23074 ft | 464 kts | 353° |
| 2026-05-06 19:25 | 46.10698 | 134.89240 | 22221 ft | 466 kts | 354° |
| 2026-05-06 19:25 | 46.13936 | 134.89621 | 21392 ft | 469 kts | 355° |
| 2026-05-06 19:25 | 46.17182 | 134.90036 | 20671 ft | 468 kts | 356° |
| 2026-05-06 19:26 | 46.20419 | 134.90473 | 19962 ft | 466 kts | 356° |
| 2026-05-06 19:26 | 46.23592 | 134.90924 | 19266 ft | 447 kts | 357° |
| 2026-05-06 19:26 | 46.26619 | 134.91382 | 18578 ft | 429 kts | 358° |
| 2026-05-06 19:26 | 46.29541 | 134.91823 | 17854 ft | 414 kts | 358° |
| 2026-05-06 19:27 | 46.32369 | 134.92223 | 17201 ft | 408 kts | 358° |
| 2026-05-06 19:27 | 46.35217 | 134.92581 | 16571 ft | 415 kts | 358° |
| 2026-05-06 19:27 | 46.38104 | 134.92929 | 15983 ft | 417 kts | 359° |
| 2026-05-06 19:27 | 46.41000 | 134.93288 | 15404 ft | 418 kts | 360° |
| 2026-05-06 19:28 | 46.43819 | 134.93652 | 14838 ft | 405 kts | 0° |
| 2026-05-06 19:28 | 46.46588 | 134.94036 | 14269 ft | 393 kts | 1° |
| 2026-05-06 19:28 | 46.49302 | 134.94413 | 13707 ft | 384 kts | 1° |
| 2026-05-06 19:28 | 46.51952 | 134.94768 | 13082 ft | 382 kts | 1° |
| 2026-05-06 19:29 | 46.54576 | 134.95123 | 12475 ft | 386 kts | 2° |
| 2026-05-06 19:29 | 46.57262 | 134.95502 | 11876 ft | 389 kts | 2° |
| 2026-05-06 19:29 | 46.59955 | 134.95879 | 11381 ft | 388 kts | 2° |
| 2026-05-06 19:29 | 46.62617 | 134.96249 | 10945 ft | 379 kts | 2° |
| 2026-05-06 19:30 | 46.65205 | 134.96602 | 10527 ft | 370 kts | 2° |
| 2026-05-06 19:30 | 46.67736 | 134.96940 | 10110 ft | 362 kts | 2° |
| 2026-05-06 19:30 | 46.70219 | 134.97261 | 9704 ft | 355 kts | 2° |
| 2026-05-06 19:30 | 46.72675 | 134.97591 | 9268 ft | 354 kts | 3° |
| 2026-05-06 19:31 | 46.75133 | 134.97931 | 8861 ft | 354 kts | 3° |
| 2026-05-06 19:31 | 46.77592 | 134.98272 | 8524 ft | 358 kts | 3° |
| 2026-05-06 19:31 | 46.82596 | 134.98950 | 7857 ft | 359 kts | 3° |
| 2026-05-06 19:32 | 46.85051 | 134.99278 | 7723 ft | 351 kts | 3° |
| 2026-05-06 19:32 | 46.87494 | 134.99577 | 7699 ft | 355 kts | 2° |
| 2026-05-06 19:32 | 46.89970 | 134.99871 | 7687 ft | 359 kts | 2° |
| 2026-05-06 19:32 | 46.92470 | 135.00189 | 7669 ft | 362 kts | 3° |
| 2026-05-06 19:33 | 46.94983 | 135.00509 | 7650 ft | 363 kts | 2° |
| 2026-05-06 19:33 | 46.97508 | 135.00807 | 7620 ft | 363 kts | 2° |
| 2026-05-06 19:33 | 47.00004 | 135.01119 | 7597 ft | 359 kts | 2° |
| 2026-05-06 19:33 | 47.02482 | 135.01419 | 7580 ft | 355 kts | 2° |
| 2026-05-06 19:34 | 47.04934 | 135.01717 | 7549 ft | 352 kts | 2° |
| 2026-05-06 19:34 | 47.07369 | 135.02026 | 7523 ft | 350 kts | 2° |
| 2026-05-06 19:34 | 47.09789 | 135.02317 | 7501 ft | 348 kts | 2° |
| 2026-05-06 19:34 | 47.12194 | 135.02605 | 7473 ft | 346 kts | 2° |
| 2026-05-06 19:35 | 47.14592 | 135.02915 | 7444 ft | 345 kts | 2° |
| 2026-05-06 19:35 | 47.16981 | 135.03216 | 7421 ft | 344 kts | 2° |
| 2026-05-06 19:35 | 47.19366 | 135.03508 | 7399 ft | 343 kts | 2° |
| 2026-05-06 19:35 | 47.21742 | 135.03798 | 7378 ft | 342 kts | 2° |
| 2026-05-06 19:36 | 47.24116 | 135.04089 | 7351 ft | 344 kts | 2° |
| 2026-05-06 19:36 | 47.26511 | 135.04383 | 7327 ft | 347 kts | 2° |
| 2026-05-06 19:36 | 47.28894 | 135.04677 | 7305 ft | 350 kts | 2° |
| 2026-05-06 19:36 | 47.31359 | 135.04987 | 7282 ft | 352 kts | 2° |
| 2026-05-06 19:37 | 47.33806 | 135.05296 | 7261 ft | 354 kts | 2° |
| 2026-05-06 19:37 | 47.36261 | 135.05605 | 7236 ft | 355 kts | 2° |
| 2026-05-06 19:37 | 47.38726 | 135.05920 | 7216 ft | 356 kts | 2° |
| 2026-05-06 19:37 | 47.40362 | 135.06137 | 7188 ft | 357 kts | 2° |
| 2026-05-06 19:38 | 47.43650 | 135.06557 | 7161 ft | 358 kts | 2° |
| 2026-05-06 19:38 | 47.46133 | 135.06870 | 7139 ft | 359 kts | 2° |
| 2026-05-06 19:38 | 47.48628 | 135.07181 | 7110 ft | 360 kts | 2° |
| 2026-05-06 19:38 | 47.51118 | 135.07499 | 7098 ft | 360 kts | 2° |
| 2026-05-06 19:39 | 47.53618 | 135.07828 | 7070 ft | 361 kts | 2° |
| 2026-05-06 19:39 | 47.56121 | 135.08147 | 7046 ft | 361 kts | 2° |
| 2026-05-06 19:39 | 47.58626 | 135.08463 | 7020 ft | 361 kts | 2° |
| 2026-05-06 19:39 | 47.61127 | 135.08777 | 6992 ft | 361 kts | 2° |
| 2026-05-06 19:40 | 47.63632 | 135.09093 | 6971 ft | 361 kts | 2° |
| 2026-05-06 19:40 | 47.66136 | 135.09409 | 6957 ft | 361 kts | 2° |
| 2026-05-06 19:40 | 47.68643 | 135.09726 | 6931 ft | 361 kts | 2° |
| 2026-05-06 19:40 | 47.71140 | 135.10050 | 6925 ft | 361 kts | 2° |
| 2026-05-06 19:41 | 47.73649 | 135.10373 | 6905 ft | 362 kts | 2° |
| 2026-05-06 19:41 | 47.76151 | 135.10694 | 6884 ft | 362 kts | 2° |
| 2026-05-06 19:41 | 47.78661 | 135.11012 | 6874 ft | 362 kts | 2° |
| 2026-05-06 19:41 | 47.81173 | 135.11332 | 6855 ft | 362 kts | 2° |
| 2026-05-06 19:42 | 47.83683 | 135.11653 | 6833 ft | 362 kts | 2° |
| 2026-05-06 19:42 | 47.86188 | 135.11974 | 6810 ft | 362 kts | 2° |
| 2026-05-06 19:42 | 47.88700 | 135.12299 | 6793 ft | 362 kts | 2° |
| 2026-05-06 19:42 | 47.91183 | 135.12621 | 6767 ft | 362 kts | 2° |
| 2026-05-06 19:43 | 47.93726 | 135.12950 | 6747 ft | 362 kts | 2° |
| 2026-05-06 19:43 | 47.96206 | 135.13269 | 6738 ft | 362 kts | 2° |
| 2026-05-06 19:43 | 47.98715 | 135.13592 | 6716 ft | 363 kts | 2° |
| 2026-05-06 19:43 | 48.01264 | 135.13920 | 6702 ft | 363 kts | 2° |
| 2026-05-06 19:44 | 48.03782 | 135.14246 | 6676 ft | 363 kts | 2° |
| 2026-05-06 19:44 | 48.06262 | 135.14567 | 6654 ft | 362 kts | 2° |
| 2026-05-06 19:44 | 48.08775 | 135.14898 | 6634 ft | 363 kts | 2° |
| 2026-05-06 19:44 | 48.11282 | 135.15229 | 6613 ft | 363 kts | 2° |
| 2026-05-06 19:45 | 48.13801 | 135.15560 | 6591 ft | 363 kts | 2° |
| 2026-05-06 19:45 | 48.16314 | 135.15886 | 6575 ft | 363 kts | 2° |
| 2026-05-06 19:45 | 48.18829 | 135.16210 | 6545 ft | 363 kts | 2° |
| 2026-05-06 19:45 | 48.21344 | 135.16535 | 6509 ft | 362 kts | 2° |
| 2026-05-06 19:46 | 48.23853 | 135.16869 | 6482 ft | 362 kts | 2° |
| 2026-05-06 19:46 | 48.26369 | 135.17198 | 6429 ft | 362 kts | 2° |
| 2026-05-06 19:46 | 48.28024 | 135.17412 | 6342 ft | 357 kts | 2° |
| 2026-05-06 19:46 | 48.31197 | 135.17835 | 6158 ft | 329 kts | 2° |
| 2026-05-06 19:47 | 48.33425 | 135.18145 | 6028 ft | 314 kts | 2° |
| 2026-05-06 19:47 | 48.34843 | 135.18346 | 5952 ft | 305 kts | 1° |
| 2026-05-06 19:47 | 48.36882 | 135.18637 | 5921 ft | 281 kts | 1° |
| 2026-05-06 19:47 | 48.38785 | 135.18900 | 5917 ft | 271 kts | 1° |
| 2026-05-06 19:48 | 48.40640 | 135.19149 | 5911 ft | 264 kts | 1° |
| 2026-05-06 19:48 | 48.42450 | 135.19384 | 5922 ft | 260 kts | 1° |
| 2026-05-06 19:48 | 48.44246 | 135.19626 | 5923 ft | 257 kts | 1° |
| 2026-05-06 19:48 | 48.46018 | 135.19861 | 5919 ft | 255 kts | 1° |
| 2026-05-06 19:49 | 48.47786 | 135.20094 | 5924 ft | 254 kts | 0° |
| 2026-05-06 19:49 | 48.49537 | 135.20326 | 5926 ft | 253 kts | 0° |
| 2026-05-06 19:49 | 48.51295 | 135.20560 | 5924 ft | 253 kts | 1° |
| 2026-05-06 19:49 | 48.53008 | 135.20786 | 5925 ft | 252 kts | 1° |
| 2026-05-06 19:50 | 48.54757 | 135.21028 | 5925 ft | 253 kts | 4° |
| 2026-05-06 19:50 | 48.56484 | 135.21651 | 5773 ft | 261 kts | 13° |
| 2026-05-06 19:50 | 48.58255 | 135.22520 | 5393 ft | 273 kts | 15° |
| 2026-05-06 19:50 | 48.60062 | 135.23502 | 5036 ft | 280 kts | 17° |
| 2026-05-06 19:51 | 48.61905 | 135.24530 | 4703 ft | 284 kts | 17° |
| 2026-05-06 19:51 | 48.63765 | 135.25556 | 4343 ft | 286 kts | 17° |
| 2026-05-06 19:51 | 48.65648 | 135.26578 | 3939 ft | 289 kts | 16° |
| 2026-05-06 19:51 | 48.67563 | 135.27582 | 3442 ft | 294 kts | 16° |
| 2026-05-06 19:52 | 48.69477 | 135.28728 | 2860 ft | 295 kts | 24° |
| 2026-05-06 19:52 | 48.71112 | 135.30403 | 2755 ft | 275 kts | 46° |
| 2026-05-06 19:52 | 48.71856 | 135.32781 | 3146 ft | 232 kts | 83° |
| 2026-05-06 19:52 | 48.71542 | 135.34873 | 2998 ft | 191 kts | 128° |
| 2026-05-06 19:53 | 48.70644 | 135.36213 | 2475 ft | 175 kts | 140° |
| 2026-05-06 19:53 | 48.69715 | 135.37282 | 2046 ft | 159 kts | 162° |
| 2026-05-06 19:53 | 48.68596 | 135.37411 | 1681 ft | 184 kts | 200° |
| 2026-05-06 19:53 | 48.67355 | 135.36606 | 1629 ft | 201 kts | 210° |
| 2026-05-06 19:54 | 48.66102 | 135.35584 | 1705 ft | 206 kts | 213° |
| 2026-05-06 19:54 | 48.64911 | 135.34590 | 1877 ft | 187 kts | 211° |
| 2026-05-06 19:54 | 48.63779 | 135.33595 | 1898 ft | 196 kts | 217° |
| 2026-05-06 19:54 | 48.62622 | 135.32321 | 1840 ft | 214 kts | 222° |
| 2026-05-06 19:55 | 48.61481 | 135.30855 | 1818 ft | 210 kts | 225° |
| 2026-05-06 19:55 | 48.60466 | 135.29469 | 1689 ft | 187 kts | 227° |
| 2026-05-06 19:55 | 48.59533 | 135.28134 | 1509 ft | 183 kts | 228° |
| 2026-05-06 19:55 | 48.58615 | 135.26807 | 1316 ft | 183 kts | 228° |
| 2026-05-06 19:56 | 48.57716 | 135.25449 | 1098 ft | 183 kts | 227° |
| 2026-05-06 19:56 | 48.56804 | 135.24095 | 853 ft | 184 kts | 226° |
| 2026-05-06 19:56 | 48.55890 | 135.22784 | 665 ft | 176 kts | 224° |
| 2026-05-06 19:56 | 48.55006 | 135.21569 | 475 ft | 169 kts | 223° |
| 2026-05-06 19:57 | 48.54000 | 135.20187 | 472 ft | 217 kts | 223° |
| 2026-05-06 19:57 | 48.53396 | 135.18274 | 1176 ft | 206 kts | 289° |
| 2026-05-06 19:57 | 48.54589 | 135.17308 | 1488 ft | 226 kts | 0° |
| 2026-05-06 19:57 | 48.56198 | 135.17820 | 2031 ft | 236 kts | 30° |
| 2026-05-06 19:58 | 48.56096 | 135.19785 | 2011 ft | 224 kts | 156° |
| 2026-05-06 19:58 | 48.54580 | 135.20498 | 1002 ft | 233 kts | 185° |
| 2026-05-06 19:58 | 48.53356 | 135.19365 | 397 ft | 197 kts | 225° |
| 2026-05-06 19:58 | 48.52470 | 135.18121 | 228 ft | 126 kts | 221° |
| 2026-05-06 19:59 | 48.52078 | 135.17593 | 230 ft | 48 kts | 221° |
| 2026-05-06 19:59 | 48.51994 | 135.17480 | 229 ft | 31 kts | 221° |